sensor_id;sensor_type;location;lat;lon;timestamp;temperature;humidity
19385;DHT22;9828;54.122;17.974;2023-05-31T00:02:36;11.80;99.90
19385;DHT22;9828;54.122;17.974;2023-05-31T00:07:58;11.90;1.00
19385;DHT22;9828;54.122;17.974;2023-05-31T00:13:19;11.80;99.90
19385;DHT22;9828;54.122;17.974;2023-05-31T00:18:40;11.70;99.90
19385;DHT22;9828;54.122;17.974;2023-05-31T00:24:02;11.60;99.90
19385;DHT22;9828;54.122;17.974;2023-05-31T00:29:23;11.40;99.90
19385;DHT22;9828;54.122;17.974;2023-05-31T00:34:46;11.50;1.00
19385;DHT22;9828;54.122;17.974;2023-05-31T00:40:08;11.50;1.00
19385;DHT22;9828;54.122;17.974;2023-05-31T00:45:29;11.50;1.00
19385;DHT22;9828;54.122;17.974;2023-05-31T00:50:51;11.40;1.00
19385;DHT22;9828;54.122;17.974;2023-05-31T00:56:13;11.30;1.00
19385;DHT22;9828;54.122;17.974;2023-05-31T01:01:34;11.10;1.00
19385;DHT22;9828;54.122;17.974;2023-05-31T01:06:56;11.00;1.00
19385;DHT22;9828;54.122;17.974;2023-05-31T01:18:41;10.90;1.00
19385;DHT22;9828;54.122;17.974;2023-05-31T01:29:26;10.70;1.00
19385;DHT22;9828;54.122;17.974;2023-05-31T01:34:50;10.60;42.50
19385;DHT22;9828;54.122;17.974;2023-05-31T01:40:13;10.60;99.90
19385;DHT22;9828;54.122;17.974;2023-05-31T01:45:35;10.70;99.90
19385;DHT22;9828;54.122;17.974;2023-05-31T01:50:58;10.50;99.90
19385;DHT22;9828;54.122;17.974;2023-05-31T01:56:20;10.40;99.90
19385;DHT22;9828;54.122;17.974;2023-05-31T02:01:43;10.40;99.90
19385;DHT22;9828;54.122;17.974;2023-05-31T02:07:05;10.30;99.90
19385;DHT22;9828;54.122;17.974;2023-05-31T02:12:26;10.30;99.90
19385;DHT22;9828;54.122;17.974;2023-05-31T02:17:48;10.20;99.90
19385;DHT22;9828;54.122;17.974;2023-05-31T02:23:12;10.30;99.90
19385;DHT22;9828;54.122;17.974;2023-05-31T02:28:33;10.20;99.90
19385;DHT22;9828;54.122;17.974;2023-05-31T02:33:55;10.20;99.90
19385;DHT22;9828;54.122;17.974;2023-05-31T02:39:20;10.10;99.90
19385;DHT22;9828;54.122;17.974;2023-05-31T02:44:41;10.10;99.90
19385;DHT22;9828;54.122;17.974;2023-05-31T02:50:08;10.10;99.90
19385;DHT22;9828;54.122;17.974;2023-05-31T02:55:37;10.00;99.90
19385;DHT22;9828;54.122;17.974;2023-05-31T03:01:17;10.00;99.90
19385;DHT22;9828;54.122;17.974;2023-05-31T03:07:01;9.90;99.90
19385;DHT22;9828;54.122;17.974;2023-05-31T03:12:23;9.80;99.90
19385;DHT22;9828;54.122;17.974;2023-05-31T03:17:46;9.90;99.90
19385;DHT22;9828;54.122;17.974;2023-05-31T03:23:08;9.90;99.90
19385;DHT22;9828;54.122;17.974;2023-05-31T03:28:29;9.90;99.90
19385;DHT22;9828;54.122;17.974;2023-05-31T03:33:51;10.00;99.90
19385;DHT22;9828;54.122;17.974;2023-05-31T03:39:13;10.00;99.90
19385;DHT22;9828;54.122;17.974;2023-05-31T03:44:34;10.10;99.90
19385;DHT22;9828;54.122;17.974;2023-05-31T03:49:55;10.30;99.90
19385;DHT22;9828;54.122;17.974;2023-05-31T03:55:17;10.30;99.90
19385;DHT22;9828;54.122;17.974;2023-05-31T04:00:38;10.50;99.90
19385;DHT22;9828;54.122;17.974;2023-05-31T04:06:00;10.60;99.90
19385;DHT22;9828;54.122;17.974;2023-05-31T04:11:22;10.80;99.90
19385;DHT22;9828;54.122;17.974;2023-05-31T04:16:43;10.90;99.90
19385;DHT22;9828;54.122;17.974;2023-05-31T04:22:07;11.10;1.00
19385;DHT22;9828;54.122;17.974;2023-05-31T04:27:29;11.40;4.60
19385;DHT22;9828;54.122;17.974;2023-05-31T04:32:53;11.70;99.90
19385;DHT22;9828;54.122;17.974;2023-05-31T04:38:18;11.90;99.90
19385;DHT22;9828;54.122;17.974;2023-05-31T04:43:40;12.10;99.90
19385;DHT22;9828;54.122;17.974;2023-05-31T04:49:03;12.30;1.00
19385;DHT22;9828;54.122;17.974;2023-05-31T04:54:25;12.50;99.90
19385;DHT22;9828;54.122;17.974;2023-05-31T04:59:47;12.50;91.30
19385;DHT22;9828;54.122;17.974;2023-05-31T05:05:08;12.60;1.00
19385;DHT22;9828;54.122;17.974;2023-05-31T05:10:30;12.70;99.90
19385;DHT22;9828;54.122;17.974;2023-05-31T05:15:52;12.70;90.50
19385;DHT22;9828;54.122;17.974;2023-05-31T05:21:14;12.70;1.00
19385;DHT22;9828;54.122;17.974;2023-05-31T05:26:37;12.90;1.00
19385;DHT22;9828;54.122;17.974;2023-05-31T05:31:59;13.10;1.00
19385;DHT22;9828;54.122;17.974;2023-05-31T05:37:21;13.30;1.00
19385;DHT22;9828;54.122;17.974;2023-05-31T05:42:42;13.40;1.00
19385;DHT22;9828;54.122;17.974;2023-05-31T05:48:04;13.60;99.90
19385;DHT22;9828;54.122;17.974;2023-05-31T05:53:27;13.80;99.90
19385;DHT22;9828;54.122;17.974;2023-05-31T05:58:49;14.10;99.90
19385;DHT22;9828;54.122;17.974;2023-05-31T06:04:32;14.40;99.90
19385;DHT22;9828;54.122;17.974;2023-05-31T06:09:56;14.60;99.90
19385;DHT22;9828;54.122;17.974;2023-05-31T06:15:18;14.90;99.90
19385;DHT22;9828;54.122;17.974;2023-05-31T06:20:39;15.30;1.00
19385;DHT22;9828;54.122;17.974;2023-05-31T06:31:24;16.50;1.00
19385;DHT22;9828;54.122;17.974;2023-05-31T06:47:30;17.60;1.00
19385;DHT22;9828;54.122;17.974;2023-05-31T06:53:08;18.40;99.90
19385;DHT22;9828;54.122;17.974;2023-05-31T06:58:35;19.00;99.90
19385;DHT22;9828;54.122;17.974;2023-05-31T07:03:57;19.60;99.90
19385;DHT22;9828;54.122;17.974;2023-05-31T07:14:47;20.60;99.90
19385;DHT22;9828;54.122;17.974;2023-05-31T07:20:09;20.90;99.90
19385;DHT22;9828;54.122;17.974;2023-05-31T07:25:31;21.10;99.90
19385;DHT22;9828;54.122;17.974;2023-05-31T07:30:52;21.30;99.90
19385;DHT22;9828;54.122;17.974;2023-05-31T07:36:14;21.50;99.90
19385;DHT22;9828;54.122;17.974;2023-05-31T07:41:35;21.70;99.90
19385;DHT22;9828;54.122;17.974;2023-05-31T07:52:18;22.40;99.90
19385;DHT22;9828;54.122;17.974;2023-05-31T07:57:42;22.70;99.90
19385;DHT22;9828;54.122;17.974;2023-05-31T08:03:03;22.60;99.90
19385;DHT22;9828;54.122;17.974;2023-05-31T08:08:26;22.80;99.90
19385;DHT22;9828;54.122;17.974;2023-05-31T08:13:48;23.00;99.90
19385;DHT22;9828;54.122;17.974;2023-05-31T08:19:09;23.40;1.00
19385;DHT22;9828;54.122;17.974;2023-05-31T08:24:30;23.60;1.00
19385;DHT22;9828;54.122;17.974;2023-05-31T08:29:51;23.60;1.00
19385;DHT22;9828;54.122;17.974;2023-05-31T08:35:12;24.00;99.90
19385;DHT22;9828;54.122;17.974;2023-05-31T08:40:33;24.30;99.90
19385;DHT22;9828;54.122;17.974;2023-05-31T08:45:55;24.10;99.90
19385;DHT22;9828;54.122;17.974;2023-05-31T08:51:17;24.20;99.90
19385;DHT22;9828;54.122;17.974;2023-05-31T08:56:39;24.20;99.90
19385;DHT22;9828;54.122;17.974;2023-05-31T09:02:04;24.10;99.90
19385;DHT22;9828;54.122;17.974;2023-05-31T09:07:25;24.00;99.90
19385;DHT22;9828;54.122;17.974;2023-05-31T09:12:47;24.30;99.90
19385;DHT22;9828;54.122;17.974;2023-05-31T09:18:15;24.40;99.90
19385;DHT22;9828;54.122;17.974;2023-05-31T09:24:06;24.00;99.90
19385;DHT22;9828;54.122;17.974;2023-05-31T09:29:28;25.00;99.90
19385;DHT22;9828;54.122;17.974;2023-05-31T09:34:49;26.00;99.90
19385;DHT22;9828;54.122;17.974;2023-05-31T09:40:30;26.70;99.90
19385;DHT22;9828;54.122;17.974;2023-05-31T09:45:52;26.70;99.90
19385;DHT22;9828;54.122;17.974;2023-05-31T09:51:13;25.90;99.90
19385;DHT22;9828;54.122;17.974;2023-05-31T09:56:39;25.80;99.90
19385;DHT22;9828;54.122;17.974;2023-05-31T10:02:02;26.00;99.90
19385;DHT22;9828;54.122;17.974;2023-05-31T10:07:24;25.70;99.90
19385;DHT22;9828;54.122;17.974;2023-05-31T10:12:53;25.90;99.90
19385;DHT22;9828;54.122;17.974;2023-05-31T10:18:16;25.40;99.90
19385;DHT22;9828;54.122;17.974;2023-05-31T10:29:24;25.90;99.90
19385;DHT22;9828;54.122;17.974;2023-05-31T10:34:48;26.20;99.90
19385;DHT22;9828;54.122;17.974;2023-05-31T10:45:59;26.80;99.90
19385;DHT22;9828;54.122;17.974;2023-05-31T10:51:42;26.90;99.90
19385;DHT22;9828;54.122;17.974;2023-05-31T10:57:05;27.00;99.90
19385;DHT22;9828;54.122;17.974;2023-05-31T11:02:26;27.00;99.90
19385;DHT22;9828;54.122;17.974;2023-05-31T11:07:52;27.00;99.90
19385;DHT22;9828;54.122;17.974;2023-05-31T11:13:14;27.00;99.90
19385;DHT22;9828;54.122;17.974;2023-05-31T11:18:41;27.40;99.90
19385;DHT22;9828;54.122;17.974;2023-05-31T11:24:05;27.70;99.90
19385;DHT22;9828;54.122;17.974;2023-05-31T11:35:15;27.30;99.90
19385;DHT22;9828;54.122;17.974;2023-05-31T11:40:37;27.10;99.90
19385;DHT22;9828;54.122;17.974;2023-05-31T11:46:00;27.20;99.90
19385;DHT22;9828;54.122;17.974;2023-05-31T11:51:23;27.10;99.90
19385;DHT22;9828;54.122;17.974;2023-05-31T11:56:44;27.40;99.90
19385;DHT22;9828;54.122;17.974;2023-05-31T12:02:24;27.20;99.90
19385;DHT22;9828;54.122;17.974;2023-05-31T12:08:04;27.30;99.90
19385;DHT22;9828;54.122;17.974;2023-05-31T12:13:32;27.40;99.90
19385;DHT22;9828;54.122;17.974;2023-05-31T12:18:54;27.30;99.90
19385;DHT22;9828;54.122;17.974;2023-05-31T12:24:17;27.20;99.90
19385;DHT22;9828;54.122;17.974;2023-05-31T12:29:39;27.30;99.90
19385;DHT22;9828;54.122;17.974;2023-05-31T12:35:07;27.50;99.90
19385;DHT22;9828;54.122;17.974;2023-05-31T12:40:37;27.50;99.90
19385;DHT22;9828;54.122;17.974;2023-05-31T12:45:59;27.80;99.90
19385;DHT22;9828;54.122;17.974;2023-05-31T12:51:22;27.60;99.90
19385;DHT22;9828;54.122;17.974;2023-05-31T12:56:53;27.60;99.90
19385;DHT22;9828;54.122;17.974;2023-05-31T13:02:58;27.50;99.90
19385;DHT22;9828;54.122;17.974;2023-05-31T13:19:38;26.70;99.90
19385;DHT22;9828;54.122;17.974;2023-05-31T13:25:01;26.80;99.90
19385;DHT22;9828;54.122;17.974;2023-05-31T13:30:22;26.90;99.90
19385;DHT22;9828;54.122;17.974;2023-05-31T13:35:44;26.80;99.90
19385;DHT22;9828;54.122;17.974;2023-05-31T13:41:31;26.80;99.90
19385;DHT22;9828;54.122;17.974;2023-05-31T13:46:54;26.70;99.90
19385;DHT22;9828;54.122;17.974;2023-05-31T13:52:16;26.80;99.90
19385;DHT22;9828;54.122;17.974;2023-05-31T13:57:38;26.80;99.90
19385;DHT22;9828;54.122;17.974;2023-05-31T14:03:00;26.70;99.90
19385;DHT22;9828;54.122;17.974;2023-05-31T14:08:22;26.70;99.90
19385;DHT22;9828;54.122;17.974;2023-05-31T14:13:43;26.60;99.90
19385;DHT22;9828;54.122;17.974;2023-05-31T14:19:05;26.40;99.90
19385;DHT22;9828;54.122;17.974;2023-05-31T14:24:26;26.20;99.90
19385;DHT22;9828;54.122;17.974;2023-05-31T14:29:49;26.10;99.90
19385;DHT22;9828;54.122;17.974;2023-05-31T14:35:10;26.10;99.90
19385;DHT22;9828;54.122;17.974;2023-05-31T14:40:32;25.90;99.90
19385;DHT22;9828;54.122;17.974;2023-05-31T14:45:54;25.70;99.90
19385;DHT22;9828;54.122;17.974;2023-05-31T14:51:15;25.70;99.90
19385;DHT22;9828;54.122;17.974;2023-05-31T14:56:38;25.40;99.90
19385;DHT22;9828;54.122;17.974;2023-05-31T15:02:00;25.40;99.90
19385;DHT22;9828;54.122;17.974;2023-05-31T15:07:22;25.60;99.90
19385;DHT22;9828;54.122;17.974;2023-05-31T15:12:44;25.50;99.90
19385;DHT22;9828;54.122;17.974;2023-05-31T15:18:10;25.40;99.90
19385;DHT22;9828;54.122;17.974;2023-05-31T15:23:32;25.20;99.90
19385;DHT22;9828;54.122;17.974;2023-05-31T15:28:53;25.00;99.90
19385;DHT22;9828;54.122;17.974;2023-05-31T15:34:15;24.90;99.90
19385;DHT22;9828;54.122;17.974;2023-05-31T15:39:36;24.90;99.90
19385;DHT22;9828;54.122;17.974;2023-05-31T15:44:57;24.80;99.90
19385;DHT22;9828;54.122;17.974;2023-05-31T15:50:19;24.80;99.90
19385;DHT22;9828;54.122;17.974;2023-05-31T15:55:44;24.80;99.90
19385;DHT22;9828;54.122;17.974;2023-05-31T16:01:07;24.60;99.90
19385;DHT22;9828;54.122;17.974;2023-05-31T16:06:28;24.50;99.90
19385;DHT22;9828;54.122;17.974;2023-05-31T16:11:50;24.30;99.90
19385;DHT22;9828;54.122;17.974;2023-05-31T16:17:12;24.30;99.90
19385;DHT22;9828;54.122;17.974;2023-05-31T16:22:33;24.20;99.90
19385;DHT22;9828;54.122;17.974;2023-05-31T16:27:55;24.00;99.90
19385;DHT22;9828;54.122;17.974;2023-05-31T16:33:16;23.90;99.90
19385;DHT22;9828;54.122;17.974;2023-05-31T16:38:37;23.90;99.90
19385;DHT22;9828;54.122;17.974;2023-05-31T16:43:59;23.90;99.90
19385;DHT22;9828;54.122;17.974;2023-05-31T16:49:20;23.80;99.90
19385;DHT22;9828;54.122;17.974;2023-05-31T16:54:42;23.70;99.90
19385;DHT22;9828;54.122;17.974;2023-05-31T17:00:03;23.60;99.90
19385;DHT22;9828;54.122;17.974;2023-05-31T17:05:25;23.60;99.90
19385;DHT22;9828;54.122;17.974;2023-05-31T17:10:46;23.50;99.90
19385;DHT22;9828;54.122;17.974;2023-05-31T17:16:08;23.30;99.90
19385;DHT22;9828;54.122;17.974;2023-05-31T17:21:30;23.20;99.90
19385;DHT22;9828;54.122;17.974;2023-05-31T17:26:53;23.10;99.90
19385;DHT22;9828;54.122;17.974;2023-05-31T17:32:15;22.90;99.90
19385;DHT22;9828;54.122;17.974;2023-05-31T17:37:38;22.70;99.90
19385;DHT22;9828;54.122;17.974;2023-05-31T17:48:21;22.30;99.90
19385;DHT22;9828;54.122;17.974;2023-05-31T17:53:42;22.20;99.90
19385;DHT22;9828;54.122;17.974;2023-05-31T17:59:03;22.00;99.90
19385;DHT22;9828;54.122;17.974;2023-05-31T18:04:24;21.80;99.90
19385;DHT22;9828;54.122;17.974;2023-05-31T18:09:46;21.60;99.90
19385;DHT22;9828;54.122;17.974;2023-05-31T18:15:08;21.50;99.90
19385;DHT22;9828;54.122;17.974;2023-05-31T18:20:29;21.30;99.90
19385;DHT22;9828;54.122;17.974;2023-05-31T18:31:14;20.80;99.90
19385;DHT22;9828;54.122;17.974;2023-05-31T18:36:35;20.80;99.90
19385;DHT22;9828;54.122;17.974;2023-05-31T18:41:56;20.50;99.90
19385;DHT22;9828;54.122;17.974;2023-05-31T18:47:18;20.50;99.90
19385;DHT22;9828;54.122;17.974;2023-05-31T18:52:39;20.20;99.90
19385;DHT22;9828;54.122;17.974;2023-05-31T18:58:00;20.10;99.90
19385;DHT22;9828;54.122;17.974;2023-05-31T19:03:21;19.80;99.90
19385;DHT22;9828;54.122;17.974;2023-05-31T19:08:43;19.80;99.90
19385;DHT22;9828;54.122;17.974;2023-05-31T19:14:04;19.70;99.90
19385;DHT22;9828;54.122;17.974;2023-05-31T19:19:26;19.60;99.90
19385;DHT22;9828;54.122;17.974;2023-05-31T19:24:47;19.40;99.90
19385;DHT22;9828;54.122;17.974;2023-05-31T19:30:08;19.30;99.90
19385;DHT22;9828;54.122;17.974;2023-05-31T19:35:30;19.10;99.90
19385;DHT22;9828;54.122;17.974;2023-05-31T19:40:51;19.00;99.90
19385;DHT22;9828;54.122;17.974;2023-05-31T19:46:19;18.90;99.90
19385;DHT22;9828;54.122;17.974;2023-05-31T19:51:41;18.70;99.90
19385;DHT22;9828;54.122;17.974;2023-05-31T19:57:03;18.60;99.90
19385;DHT22;9828;54.122;17.974;2023-05-31T20:07:46;18.30;99.90
19385;DHT22;9828;54.122;17.974;2023-05-31T20:13:09;18.20;99.90
19385;DHT22;9828;54.122;17.974;2023-05-31T20:18:33;18.10;99.90
19385;DHT22;9828;54.122;17.974;2023-05-31T20:23:55;18.10;99.90
19385;DHT22;9828;54.122;17.974;2023-05-31T20:29:16;17.90;99.90
19385;DHT22;9828;54.122;17.974;2023-05-31T20:34:38;17.80;99.90
19385;DHT22;9828;54.122;17.974;2023-05-31T20:39:59;17.60;99.90
19385;DHT22;9828;54.122;17.974;2023-05-31T20:45:21;17.50;99.90
19385;DHT22;9828;54.122;17.974;2023-05-31T20:50:45;17.40;99.90
19385;DHT22;9828;54.122;17.974;2023-05-31T20:56:07;17.30;99.90
19385;DHT22;9828;54.122;17.974;2023-05-31T21:01:28;17.20;99.90
19385;DHT22;9828;54.122;17.974;2023-05-31T21:06:49;17.10;99.90
19385;DHT22;9828;54.122;17.974;2023-05-31T21:12:10;17.00;99.90
19385;DHT22;9828;54.122;17.974;2023-05-31T21:17:31;16.90;99.90
19385;DHT22;9828;54.122;17.974;2023-05-31T21:22:53;16.90;99.90
19385;DHT22;9828;54.122;17.974;2023-05-31T21:28:14;16.80;99.90
19385;DHT22;9828;54.122;17.974;2023-05-31T21:33:37;16.70;99.90
19385;DHT22;9828;54.122;17.974;2023-05-31T21:39:00;16.60;99.90
19385;DHT22;9828;54.122;17.974;2023-05-31T21:44:21;16.60;99.90
19385;DHT22;9828;54.122;17.974;2023-05-31T21:49:42;16.60;99.90
19385;DHT22;9828;54.122;17.974;2023-05-31T21:55:04;16.50;99.90
19385;DHT22;9828;54.122;17.974;2023-05-31T22:00:26;16.40;99.90
19385;DHT22;9828;54.122;17.974;2023-05-31T22:05:47;16.40;99.90
19385;DHT22;9828;54.122;17.974;2023-05-31T22:11:09;16.40;99.90
19385;DHT22;9828;54.122;17.974;2023-05-31T22:16:30;16.30;99.90
19385;DHT22;9828;54.122;17.974;2023-05-31T22:21:55;16.20;99.90
19385;DHT22;9828;54.122;17.974;2023-05-31T22:27:17;16.20;99.90
19385;DHT22;9828;54.122;17.974;2023-05-31T22:32:39;16.10;99.90
19385;DHT22;9828;54.122;17.974;2023-05-31T22:38:00;16.10;99.90
19385;DHT22;9828;54.122;17.974;2023-05-31T22:43:21;16.00;99.90
19385;DHT22;9828;54.122;17.974;2023-05-31T22:48:43;16.00;1.00
19385;DHT22;9828;54.122;17.974;2023-05-31T22:54:04;15.90;1.00
19385;DHT22;9828;54.122;17.974;2023-05-31T22:59:26;15.80;1.00
19385;DHT22;9828;54.122;17.974;2023-05-31T23:04:48;15.80;1.00
19385;DHT22;9828;54.122;17.974;2023-05-31T23:10:10;15.70;1.00
19385;DHT22;9828;54.122;17.974;2023-05-31T23:15:35;15.70;1.00
19385;DHT22;9828;54.122;17.974;2023-05-31T23:20:59;15.60;12.40
19385;DHT22;9828;54.122;17.974;2023-05-31T23:26:21;15.60;60.60
19385;DHT22;9828;54.122;17.974;2023-05-31T23:31:43;15.50;99.90
19385;DHT22;9828;54.122;17.974;2023-05-31T23:37:05;15.40;99.90
19385;DHT22;9828;54.122;17.974;2023-05-31T23:42:26;15.30;99.90
19385;DHT22;9828;54.122;17.974;2023-05-31T23:47:47;15.20;99.90
19385;DHT22;9828;54.122;17.974;2023-05-31T23:53:10;15.20;1.00
19385;DHT22;9828;54.122;17.974;2023-05-31T23:58:31;15.10;1.00
